KRNC/RNC METAR and TAF weather

Enter ICAO airport designator
Station Type Date Time Source
KRNC METAR 2024/04/15 10:15 UTC NOAA

KRNC 151015Z AUTO 21005KT 10SM BKN050 17/10 A3001 RMK A01


Station Type Date Time Source
KRNC Decoded METAR 2024/04/15 10:15 UTC NOAA

Station name not available
Apr 15, 2024 - 06:15 AM EDT / 2024.04.15 1015 UTC
Wind: from the SSW (210 degrees) at 6 MPH (5 KT):0
Visibility: 10 mile(s):0
Sky conditions: mostly cloudy
Temperature: 62 F (17 C)
Dew Point: 50 F (10 C)
Relative Humidity: 63%
Pressure (altimeter): 30.01 in. Hg (1016 hPa)
ob: KRNC 151015Z AUTO 21005KT 10SM BKN050 17/10 A3001 RMK A01
cycle: 10

Station Type Date Time Source
KRNC TAF 2009/08/31 19:45 UTC NOAA